sensor_id;sensor_type;location;lat;lon;timestamp;temperature;humidity
15666;DHT22;20725;51.196;3.510;2022-08-01T00:02:21;20.50;99.90
15666;DHT22;20725;51.196;3.510;2022-08-01T00:04:48;20.50;99.90
15666;DHT22;20725;51.196;3.510;2022-08-01T00:07:15;20.50;99.90
15666;DHT22;20725;51.196;3.510;2022-08-01T00:09:42;20.40;99.90
15666;DHT22;20725;51.196;3.510;2022-08-01T00:12:09;20.50;99.90
15666;DHT22;20725;51.196;3.510;2022-08-01T00:14:37;20.40;99.90
15666;DHT22;20725;51.196;3.510;2022-08-01T00:17:04;20.30;99.90
15666;DHT22;20725;51.196;3.510;2022-08-01T00:19:33;20.30;99.90
15666;DHT22;20725;51.196;3.510;2022-08-01T00:22:00;20.30;99.90
15666;DHT22;20725;51.196;3.510;2022-08-01T00:24:27;20.20;99.90
15666;DHT22;20725;51.196;3.510;2022-08-01T00:26:54;20.30;99.90
15666;DHT22;20725;51.196;3.510;2022-08-01T00:29:21;20.30;99.90
15666;DHT22;20725;51.196;3.510;2022-08-01T00:31:48;20.30;99.90
15666;DHT22;20725;51.196;3.510;2022-08-01T00:34:16;20.40;99.90
15666;DHT22;20725;51.196;3.510;2022-08-01T00:36:44;20.40;99.90
15666;DHT22;20725;51.196;3.510;2022-08-01T00:39:12;20.30;99.90
15666;DHT22;20725;51.196;3.510;2022-08-01T00:41:39;20.30;99.90
15666;DHT22;20725;51.196;3.510;2022-08-01T00:44:07;20.30;99.90
15666;DHT22;20725;51.196;3.510;2022-08-01T00:46:34;20.30;99.90
15666;DHT22;20725;51.196;3.510;2022-08-01T00:49:01;20.30;99.90
15666;DHT22;20725;51.196;3.510;2022-08-01T00:51:29;20.20;99.90
15666;DHT22;20725;51.196;3.510;2022-08-01T00:53:58;20.10;99.90
15666;DHT22;20725;51.196;3.510;2022-08-01T00:56:27;20.10;99.90
15666;DHT22;20725;51.196;3.510;2022-08-01T00:58:55;20.00;99.90
15666;DHT22;20725;51.196;3.510;2022-08-01T01:01:22;19.90;99.90
15666;DHT22;20725;51.196;3.510;2022-08-01T01:03:49;19.80;99.90
15666;DHT22;20725;51.196;3.510;2022-08-01T01:06:26;19.90;99.90
15666;DHT22;20725;51.196;3.510;2022-08-01T01:09:10;19.90;99.90
15666;DHT22;20725;51.196;3.510;2022-08-01T01:11:44;19.90;99.90
15666;DHT22;20725;51.196;3.510;2022-08-01T01:14:23;19.90;99.90
15666;DHT22;20725;51.196;3.510;2022-08-01T01:16:54;19.90;99.90
15666;DHT22;20725;51.196;3.510;2022-08-01T01:19:24;20.00;99.90
15666;DHT22;20725;51.196;3.510;2022-08-01T01:22:07;20.00;99.90
15666;DHT22;20725;51.196;3.510;2022-08-01T01:24:47;20.00;99.90
15666;DHT22;20725;51.196;3.510;2022-08-01T01:27:28;20.00;99.90
15666;DHT22;20725;51.196;3.510;2022-08-01T01:29:59;20.10;99.90
15666;DHT22;20725;51.196;3.510;2022-08-01T01:32:31;20.10;99.90
15666;DHT22;20725;51.196;3.510;2022-08-01T01:35:02;20.10;99.90
15666;DHT22;20725;51.196;3.510;2022-08-01T01:37:33;20.10;99.90
15666;DHT22;20725;51.196;3.510;2022-08-01T01:40:02;20.10;99.90
15666;DHT22;20725;51.196;3.510;2022-08-01T01:42:31;20.10;99.90
15666;DHT22;20725;51.196;3.510;2022-08-01T01:45:00;20.20;99.90
15666;DHT22;20725;51.196;3.510;2022-08-01T01:47:29;20.10;99.90
15666;DHT22;20725;51.196;3.510;2022-08-01T01:50:00;20.10;99.90
15666;DHT22;20725;51.196;3.510;2022-08-01T01:52:29;20.10;99.90
15666;DHT22;20725;51.196;3.510;2022-08-01T01:54:57;20.20;99.90
15666;DHT22;20725;51.196;3.510;2022-08-01T01:57:26;20.20;99.90
15666;DHT22;20725;51.196;3.510;2022-08-01T01:59:55;20.20;99.90
15666;DHT22;20725;51.196;3.510;2022-08-01T02:02:34;20.20;99.90
15666;DHT22;20725;51.196;3.510;2022-08-01T02:05:39;20.20;99.90
15666;DHT22;20725;51.196;3.510;2022-08-01T02:08:31;20.10;99.90
15666;DHT22;20725;51.196;3.510;2022-08-01T02:11:18;20.20;99.90
15666;DHT22;20725;51.196;3.510;2022-08-01T02:14:16;20.20;99.90
15666;DHT22;20725;51.196;3.510;2022-08-01T02:16:50;20.20;99.90
15666;DHT22;20725;51.196;3.510;2022-08-01T02:19:46;20.10;99.90
15666;DHT22;20725;51.196;3.510;2022-08-01T02:22:49;20.20;99.90
15666;DHT22;20725;51.196;3.510;2022-08-01T02:25:49;20.20;99.90
15666;DHT22;20725;51.196;3.510;2022-08-01T02:28:20;20.20;99.90
15666;DHT22;20725;51.196;3.510;2022-08-01T02:31:17;20.20;99.90
15666;DHT22;20725;51.196;3.510;2022-08-01T02:34:32;20.20;99.90
15666;DHT22;20725;51.196;3.510;2022-08-01T02:43:09;20.20;99.90
15666;DHT22;20725;51.196;3.510;2022-08-01T02:45:51;20.20;99.90
15666;DHT22;20725;51.196;3.510;2022-08-01T02:49:51;20.30;99.90
15666;DHT22;20725;51.196;3.510;2022-08-01T02:52:07;20.20;99.90
15666;DHT22;20725;51.196;3.510;2022-08-01T02:54:51;20.20;99.90
15666;DHT22;20725;51.196;3.510;2022-08-01T02:57:38;20.20;99.90
15666;DHT22;20725;51.196;3.510;2022-08-01T03:00:36;20.20;99.90
15666;DHT22;20725;51.196;3.510;2022-08-01T03:03:17;20.10;99.90
15666;DHT22;20725;51.196;3.510;2022-08-01T03:05:47;20.10;99.90
15666;DHT22;20725;51.196;3.510;2022-08-01T03:08:34;20.10;99.90
15666;DHT22;20725;51.196;3.510;2022-08-01T03:11:07;20.10;99.90
15666;DHT22;20725;51.196;3.510;2022-08-01T03:13:58;20.00;99.90
15666;DHT22;20725;51.196;3.510;2022-08-01T03:16:35;19.90;99.90
15666;DHT22;20725;51.196;3.510;2022-08-01T03:19:32;19.90;99.90
15666;DHT22;20725;51.196;3.510;2022-08-01T03:22:08;19.90;99.90
15666;DHT22;20725;51.196;3.510;2022-08-01T03:25:00;19.80;99.90
15666;DHT22;20725;51.196;3.510;2022-08-01T03:27:38;19.80;99.90
15666;DHT22;20725;51.196;3.510;2022-08-01T03:30:31;19.80;99.90
15666;DHT22;20725;51.196;3.510;2022-08-01T03:33:09;19.80;99.90
15666;DHT22;20725;51.196;3.510;2022-08-01T03:35:40;19.90;99.90
15666;DHT22;20725;51.196;3.510;2022-08-01T03:38:10;19.80;99.90
15666;DHT22;20725;51.196;3.510;2022-08-01T03:40:49;19.80;99.90
15666;DHT22;20725;51.196;3.510;2022-08-01T03:43:20;19.80;99.90
15666;DHT22;20725;51.196;3.510;2022-08-01T03:46:02;19.80;99.90
15666;DHT22;20725;51.196;3.510;2022-08-01T03:48:39;19.70;99.90
15666;DHT22;20725;51.196;3.510;2022-08-01T03:51:08;19.70;99.90
15666;DHT22;20725;51.196;3.510;2022-08-01T03:53:47;19.70;99.90
15666;DHT22;20725;51.196;3.510;2022-08-01T03:56:23;19.60;99.90
15666;DHT22;20725;51.196;3.510;2022-08-01T03:59:00;19.60;99.90
15666;DHT22;20725;51.196;3.510;2022-08-01T04:04:56;19.50;99.90
15666;DHT22;20725;51.196;3.510;2022-08-01T04:07:29;19.40;99.90
15666;DHT22;20725;51.196;3.510;2022-08-01T04:10:17;19.40;99.90
15666;DHT22;20725;51.196;3.510;2022-08-01T04:16:03;19.20;99.90
15666;DHT22;20725;51.196;3.510;2022-08-01T04:18:33;19.10;99.90
15666;DHT22;20725;51.196;3.510;2022-08-01T04:21:18;19.00;99.90
15666;DHT22;20725;51.196;3.510;2022-08-01T04:23:54;19.00;99.90
15666;DHT22;20725;51.196;3.510;2022-08-01T04:26:43;18.90;99.90
15666;DHT22;20725;51.196;3.510;2022-08-01T04:29:56;18.90;99.90
15666;DHT22;20725;51.196;3.510;2022-08-01T04:32:20;18.90;99.90
15666;DHT22;20725;51.196;3.510;2022-08-01T04:35:04;18.90;99.90
15666;DHT22;20725;51.196;3.510;2022-08-01T04:37:46;18.90;99.90
15666;DHT22;20725;51.196;3.510;2022-08-01T04:40:27;19.00;99.90
15666;DHT22;20725;51.196;3.510;2022-08-01T04:43:08;19.10;99.90
15666;DHT22;20725;51.196;3.510;2022-08-01T04:45:44;19.10;99.90
15666;DHT22;20725;51.196;3.510;2022-08-01T04:51:31;19.20;99.90
15666;DHT22;20725;51.196;3.510;2022-08-01T04:54:15;19.10;99.90
15666;DHT22;20725;51.196;3.510;2022-08-01T04:56:53;19.20;99.90
15666;DHT22;20725;51.196;3.510;2022-08-01T04:59:21;19.20;99.90
15666;DHT22;20725;51.196;3.510;2022-08-01T05:05:45;19.30;99.90
15666;DHT22;20725;51.196;3.510;2022-08-01T05:08:16;19.30;99.90
15666;DHT22;20725;51.196;3.510;2022-08-01T05:10:56;19.30;99.90
15666;DHT22;20725;51.196;3.510;2022-08-01T05:13:28;19.50;99.90
15666;DHT22;20725;51.196;3.510;2022-08-01T05:16:27;19.50;99.90
15666;DHT22;20725;51.196;3.510;2022-08-01T05:18:57;19.70;99.90
15666;DHT22;20725;51.196;3.510;2022-08-01T05:21:46;19.90;99.90
15666;DHT22;20725;51.196;3.510;2022-08-01T05:24:20;20.10;99.90
15666;DHT22;20725;51.196;3.510;2022-08-01T05:27:29;20.10;99.90
15666;DHT22;20725;51.196;3.510;2022-08-01T05:30:23;20.20;99.90
15666;DHT22;20725;51.196;3.510;2022-08-01T05:32:56;20.50;99.90
15666;DHT22;20725;51.196;3.510;2022-08-01T05:35:31;20.80;99.40
15666;DHT22;20725;51.196;3.510;2022-08-01T05:38:01;21.10;98.40
15666;DHT22;20725;51.196;3.510;2022-08-01T05:40:43;21.40;97.50
15666;DHT22;20725;51.196;3.510;2022-08-01T05:43:37;21.70;96.30
15666;DHT22;20725;51.196;3.510;2022-08-01T05:46:08;21.80;94.30
15666;DHT22;20725;51.196;3.510;2022-08-01T05:48:53;21.90;94.60
15666;DHT22;20725;51.196;3.510;2022-08-01T05:51:28;22.00;94.00
15666;DHT22;20725;51.196;3.510;2022-08-01T05:54:23;21.90;93.80
15666;DHT22;20725;51.196;3.510;2022-08-01T05:56:51;22.00;93.60
15666;DHT22;20725;51.196;3.510;2022-08-01T05:59:41;22.10;93.20
15666;DHT22;20725;51.196;3.510;2022-08-01T06:02:16;22.30;92.70
15666;DHT22;20725;51.196;3.510;2022-08-01T06:04:49;22.30;92.30
15666;DHT22;20725;51.196;3.510;2022-08-01T06:07:20;22.20;91.90
15666;DHT22;20725;51.196;3.510;2022-08-01T06:09:47;22.50;91.10
15666;DHT22;20725;51.196;3.510;2022-08-01T06:12:35;22.60;91.50
15666;DHT22;20725;51.196;3.510;2022-08-01T06:15:19;23.00;90.60
15666;DHT22;20725;51.196;3.510;2022-08-01T06:18:01;23.40;90.10
15666;DHT22;20725;51.196;3.510;2022-08-01T06:20:31;23.90;85.00
15666;DHT22;20725;51.196;3.510;2022-08-01T06:22:58;24.30;84.80
15666;DHT22;20725;51.196;3.510;2022-08-01T06:25:27;24.70;83.10
15666;DHT22;20725;51.196;3.510;2022-08-01T06:28:00;25.10;79.20
15666;DHT22;20725;51.196;3.510;2022-08-01T06:30:45;25.00;76.10
15666;DHT22;20725;51.196;3.510;2022-08-01T06:33:26;25.30;74.60
15666;DHT22;20725;51.196;3.510;2022-08-01T06:36:00;25.70;72.60
15666;DHT22;20725;51.196;3.510;2022-08-01T06:39:05;25.80;71.70
15666;DHT22;20725;51.196;3.510;2022-08-01T06:41:49;26.10;67.60
15666;DHT22;20725;51.196;3.510;2022-08-01T06:44:26;26.00;68.70
15666;DHT22;20725;51.196;3.510;2022-08-01T06:47:00;25.80;68.30
15666;DHT22;20725;51.196;3.510;2022-08-01T06:49:42;25.50;67.70
15666;DHT22;20725;51.196;3.510;2022-08-01T06:52:31;25.20;67.20
15666;DHT22;20725;51.196;3.510;2022-08-01T06:55:04;25.10;68.50
15666;DHT22;20725;51.196;3.510;2022-08-01T06:57:45;25.40;68.90
15666;DHT22;20725;51.196;3.510;2022-08-01T07:00:33;25.50;67.20
15666;DHT22;20725;51.196;3.510;2022-08-01T07:04:46;25.70;66.40
15666;DHT22;20725;51.196;3.510;2022-08-01T07:05:57;25.60;64.90
15666;DHT22;20725;51.196;3.510;2022-08-01T07:08:36;25.60;66.00
15666;DHT22;20725;51.196;3.510;2022-08-01T07:11:05;25.70;65.60
15666;DHT22;20725;51.196;3.510;2022-08-01T07:13:34;26.00;63.90
15666;DHT22;20725;51.196;3.510;2022-08-01T07:16:04;25.90;63.80
15666;DHT22;20725;51.196;3.510;2022-08-01T07:18:47;26.10;63.60
15666;DHT22;20725;51.196;3.510;2022-08-01T07:21:15;26.20;62.60
15666;DHT22;20725;51.196;3.510;2022-08-01T07:23:42;26.20;62.50
15666;DHT22;20725;51.196;3.510;2022-08-01T07:26:12;26.20;62.60
15666;DHT22;20725;51.196;3.510;2022-08-01T07:28:39;26.40;61.50
15666;DHT22;20725;51.196;3.510;2022-08-01T07:31:06;26.30;59.70
15666;DHT22;20725;51.196;3.510;2022-08-01T07:33:33;26.30;60.10
15666;DHT22;20725;51.196;3.510;2022-08-01T07:36:20;26.70;60.00
15666;DHT22;20725;51.196;3.510;2022-08-01T07:39:22;27.30;57.90
15666;DHT22;20725;51.196;3.510;2022-08-01T07:42:14;28.30;56.20
15666;DHT22;20725;51.196;3.510;2022-08-01T07:44:44;29.80;52.80
15666;DHT22;20725;51.196;3.510;2022-08-01T07:47:26;31.20;51.40
15666;DHT22;20725;51.196;3.510;2022-08-01T07:51:02;32.40;48.50
15666;DHT22;20725;51.196;3.510;2022-08-01T07:52:54;33.60;46.70
15666;DHT22;20725;51.196;3.510;2022-08-01T07:55:25;34.60;44.00
15666;DHT22;20725;51.196;3.510;2022-08-01T07:58:13;35.20;41.80
15666;DHT22;20725;51.196;3.510;2022-08-01T08:00:53;36.00;40.40
15666;DHT22;20725;51.196;3.510;2022-08-01T08:06:30;36.20;38.10
15666;DHT22;20725;51.196;3.510;2022-08-01T08:09:03;34.80;38.50
15666;DHT22;20725;51.196;3.510;2022-08-01T08:11:37;34.90;39.10
15666;DHT22;20725;51.196;3.510;2022-08-01T08:14:22;34.50;38.20
15666;DHT22;20725;51.196;3.510;2022-08-01T08:16:56;34.00;37.50
15666;DHT22;20725;51.196;3.510;2022-08-01T08:19:34;33.40;39.50
15666;DHT22;20725;51.196;3.510;2022-08-01T08:22:05;32.50;40.00
15666;DHT22;20725;51.196;3.510;2022-08-01T08:24:39;31.70;40.10
15666;DHT22;20725;51.196;3.510;2022-08-01T08:27:16;30.70;41.60
15666;DHT22;20725;51.196;3.510;2022-08-01T08:30:01;30.20;42.80
15666;DHT22;20725;51.196;3.510;2022-08-01T08:32:47;31.20;41.70
15666;DHT22;20725;51.196;3.510;2022-08-01T08:35:34;32.20;40.50
15666;DHT22;20725;51.196;3.510;2022-08-01T08:38:17;33.80;40.90
15666;DHT22;20725;51.196;3.510;2022-08-01T08:43:55;36.90;33.60
15666;DHT22;20725;51.196;3.510;2022-08-01T08:46:28;37.70;32.90
15666;DHT22;20725;51.196;3.510;2022-08-01T08:49:07;38.40;32.40
15666;DHT22;20725;51.196;3.510;2022-08-01T08:51:39;38.20;30.60
15666;DHT22;20725;51.196;3.510;2022-08-01T08:54:12;37.60;31.70
15666;DHT22;20725;51.196;3.510;2022-08-01T08:56:52;37.60;30.90
15666;DHT22;20725;51.196;3.510;2022-08-01T08:59:25;37.90;31.60
15666;DHT22;20725;51.196;3.510;2022-08-01T09:02:07;38.10;31.20
15666;DHT22;20725;51.196;3.510;2022-08-01T09:04:47;38.50;30.60
15666;DHT22;20725;51.196;3.510;2022-08-01T09:07:22;38.40;30.00
15666;DHT22;20725;51.196;3.510;2022-08-01T09:10:15;38.50;29.60
15666;DHT22;20725;51.196;3.510;2022-08-01T09:13:06;39.10;29.50
15666;DHT22;20725;51.196;3.510;2022-08-01T09:15:47;39.50;29.60
15666;DHT22;20725;51.196;3.510;2022-08-01T09:18:37;39.30;29.20
15666;DHT22;20725;51.196;3.510;2022-08-01T09:21:27;39.10;29.30
15666;DHT22;20725;51.196;3.510;2022-08-01T09:23:56;39.30;28.40
15666;DHT22;20725;51.196;3.510;2022-08-01T09:26:35;38.30;29.40
15666;DHT22;20725;51.196;3.510;2022-08-01T09:29:16;38.80;29.70
15666;DHT22;20725;51.196;3.510;2022-08-01T09:32:00;38.50;29.00
15666;DHT22;20725;51.196;3.510;2022-08-01T09:34:39;38.50;28.60
15666;DHT22;20725;51.196;3.510;2022-08-01T09:37:07;38.30;29.10
15666;DHT22;20725;51.196;3.510;2022-08-01T09:39:39;37.70;28.80
15666;DHT22;20725;51.196;3.510;2022-08-01T09:42:25;37.80;28.90
15666;DHT22;20725;51.196;3.510;2022-08-01T09:44:57;38.00;28.60
15666;DHT22;20725;51.196;3.510;2022-08-01T09:47:43;37.60;28.60
15666;DHT22;20725;51.196;3.510;2022-08-01T09:50:23;36.90;29.80
15666;DHT22;20725;51.196;3.510;2022-08-01T09:53:05;36.30;30.10
15666;DHT22;20725;51.196;3.510;2022-08-01T09:55:36;35.90;30.70
15666;DHT22;20725;51.196;3.510;2022-08-01T09:58:14;35.80;30.70
15666;DHT22;20725;51.196;3.510;2022-08-01T10:00:58;36.00;30.50
15666;DHT22;20725;51.196;3.510;2022-08-01T10:03:43;37.10;30.80
15666;DHT22;20725;51.196;3.510;2022-08-01T10:06:22;38.50;28.80
15666;DHT22;20725;51.196;3.510;2022-08-01T10:08:54;39.10;28.60
15666;DHT22;20725;51.196;3.510;2022-08-01T10:11:24;39.30;27.90
15666;DHT22;20725;51.196;3.510;2022-08-01T10:14:11;39.40;27.20
15666;DHT22;20725;51.196;3.510;2022-08-01T10:16:40;39.30;27.60
15666;DHT22;20725;51.196;3.510;2022-08-01T10:19:18;39.60;27.50
15666;DHT22;20725;51.196;3.510;2022-08-01T10:21:59;39.50;27.20
15666;DHT22;20725;51.196;3.510;2022-08-01T10:24:30;38.90;27.10
15666;DHT22;20725;51.196;3.510;2022-08-01T10:27:06;39.20;28.40
15666;DHT22;20725;51.196;3.510;2022-08-01T10:29:41;39.80;27.70
15666;DHT22;20725;51.196;3.510;2022-08-01T10:32:11;40.70;28.00
15666;DHT22;20725;51.196;3.510;2022-08-01T10:34:41;41.00;26.70
15666;DHT22;20725;51.196;3.510;2022-08-01T10:37:16;41.10;26.20
15666;DHT22;20725;51.196;3.510;2022-08-01T10:42:58;41.00;26.10
15666;DHT22;20725;51.196;3.510;2022-08-01T10:45:29;40.00;26.30
15666;DHT22;20725;51.196;3.510;2022-08-01T10:48:08;39.90;26.80
15666;DHT22;20725;51.196;3.510;2022-08-01T10:50:44;40.70;26.80
15666;DHT22;20725;51.196;3.510;2022-08-01T10:53:13;42.10;25.30
15666;DHT22;20725;51.196;3.510;2022-08-01T10:56:03;42.00;24.70
15666;DHT22;20725;51.196;3.510;2022-08-01T10:59:01;41.90;24.50
15666;DHT22;20725;51.196;3.510;2022-08-01T11:01:40;41.60;25.80
15666;DHT22;20725;51.196;3.510;2022-08-01T11:04:17;41.10;25.40
15666;DHT22;20725;51.196;3.510;2022-08-01T11:07:02;42.50;25.00
15666;DHT22;20725;51.196;3.510;2022-08-01T11:09:31;43.70;24.20
15666;DHT22;20725;51.196;3.510;2022-08-01T11:12:07;45.30;23.00
15666;DHT22;20725;51.196;3.510;2022-08-01T11:15:16;44.80;22.30
15666;DHT22;20725;51.196;3.510;2022-08-01T11:17:55;45.70;22.20
15666;DHT22;20725;51.196;3.510;2022-08-01T11:20:29;46.60;21.80
15666;DHT22;20725;51.196;3.510;2022-08-01T11:23:17;47.10;20.90
15666;DHT22;20725;51.196;3.510;2022-08-01T11:26:17;46.70;20.50
15666;DHT22;20725;51.196;3.510;2022-08-01T11:29:14;45.20;21.00
15666;DHT22;20725;51.196;3.510;2022-08-01T11:31:53;43.70;22.30
15666;DHT22;20725;51.196;3.510;2022-08-01T11:35:32;42.10;23.10
15666;DHT22;20725;51.196;3.510;2022-08-01T11:38:28;41.00;23.70
15666;DHT22;20725;51.196;3.510;2022-08-01T11:41:12;39.10;25.10
15666;DHT22;20725;51.196;3.510;2022-08-01T11:43:59;38.30;26.30
15666;DHT22;20725;51.196;3.510;2022-08-01T11:47:01;37.90;26.30
15666;DHT22;20725;51.196;3.510;2022-08-01T11:49:47;37.90;27.10
15666;DHT22;20725;51.196;3.510;2022-08-01T11:52:24;37.40;27.30
15666;DHT22;20725;51.196;3.510;2022-08-01T11:54:56;36.90;27.00
15666;DHT22;20725;51.196;3.510;2022-08-01T11:57:27;36.70;27.70
15666;DHT22;20725;51.196;3.510;2022-08-01T12:00:03;36.30;28.50
15666;DHT22;20725;51.196;3.510;2022-08-01T12:02:35;36.00;29.00
15666;DHT22;20725;51.196;3.510;2022-08-01T12:05:06;36.00;29.50
15666;DHT22;20725;51.196;3.510;2022-08-01T12:07:43;36.10;29.60
15666;DHT22;20725;51.196;3.510;2022-08-01T12:10:13;36.10;29.40
15666;DHT22;20725;51.196;3.510;2022-08-01T12:12:53;36.40;29.00
15666;DHT22;20725;51.196;3.510;2022-08-01T12:15:29;36.40;28.90
15666;DHT22;20725;51.196;3.510;2022-08-01T12:17:59;36.90;29.20
15666;DHT22;20725;51.196;3.510;2022-08-01T12:20:33;37.40;28.80
15666;DHT22;20725;51.196;3.510;2022-08-01T12:23:05;38.40;28.10
15666;DHT22;20725;51.196;3.510;2022-08-01T12:25:34;39.10;27.20
15666;DHT22;20725;51.196;3.510;2022-08-01T12:28:03;39.80;27.00
15666;DHT22;20725;51.196;3.510;2022-08-01T12:30:35;41.40;26.30
15666;DHT22;20725;51.196;3.510;2022-08-01T12:33:08;43.20;25.20
15666;DHT22;20725;51.196;3.510;2022-08-01T12:35:36;43.80;23.70
15666;DHT22;20725;51.196;3.510;2022-08-01T12:38:06;45.00;23.30
15666;DHT22;20725;51.196;3.510;2022-08-01T12:40:47;45.50;22.30
15666;DHT22;20725;51.196;3.510;2022-08-01T12:43:42;46.00;21.50
15666;DHT22;20725;51.196;3.510;2022-08-01T12:46:20;46.50;21.10
15666;DHT22;20725;51.196;3.510;2022-08-01T12:48:54;46.80;20.10
15666;DHT22;20725;51.196;3.510;2022-08-01T12:54:17;50.00;18.60
15666;DHT22;20725;51.196;3.510;2022-08-01T12:56:49;50.80;17.70
15666;DHT22;20725;51.196;3.510;2022-08-01T12:59:22;48.40;17.90
15666;DHT22;20725;51.196;3.510;2022-08-01T13:01:51;46.40;19.20
15666;DHT22;20725;51.196;3.510;2022-08-01T13:04:22;48.20;19.00
15666;DHT22;20725;51.196;3.510;2022-08-01T13:06:56;49.80;17.90
15666;DHT22;20725;51.196;3.510;2022-08-01T13:09:25;51.40;17.30
15666;DHT22;20725;51.196;3.510;2022-08-01T13:11:55;52.60;16.20
15666;DHT22;20725;51.196;3.510;2022-08-01T13:14:29;53.20;15.20
15666;DHT22;20725;51.196;3.510;2022-08-01T13:16:56;52.70;14.80
15666;DHT22;20725;51.196;3.510;2022-08-01T13:19:41;52.90;15.10
15666;DHT22;20725;51.196;3.510;2022-08-01T13:22:08;52.40;14.20
15666;DHT22;20725;51.196;3.510;2022-08-01T13:24:35;49.90;14.70
15666;DHT22;20725;51.196;3.510;2022-08-01T13:27:19;48.80;15.90
15666;DHT22;20725;51.196;3.510;2022-08-01T13:29:49;47.60;16.40
15666;DHT22;20725;51.196;3.510;2022-08-01T13:32:20;48.50;17.00
15666;DHT22;20725;51.196;3.510;2022-08-01T13:34:50;49.30;16.40
15666;DHT22;20725;51.196;3.510;2022-08-01T13:38:08;49.90;15.70
15666;DHT22;20725;51.196;3.510;2022-08-01T13:40:38;51.70;14.40
15666;DHT22;20725;51.196;3.510;2022-08-01T13:43:21;51.70;14.40
15666;DHT22;20725;51.196;3.510;2022-08-01T13:45:54;51.10;14.80
15666;DHT22;20725;51.196;3.510;2022-08-01T13:48:21;48.60;14.90
15666;DHT22;20725;51.196;3.510;2022-08-01T13:50:50;46.20;15.70
15666;DHT22;20725;51.196;3.510;2022-08-01T13:53:27;44.70;16.60
15666;DHT22;20725;51.196;3.510;2022-08-01T13:55:57;44.50;17.30
15666;DHT22;20725;51.196;3.510;2022-08-01T13:58:29;45.30;17.40
15666;DHT22;20725;51.196;3.510;2022-08-01T14:01:17;46.30;17.30
15666;DHT22;20725;51.196;3.510;2022-08-01T14:03:46;45.60;17.30
15666;DHT22;20725;51.196;3.510;2022-08-01T14:06:35;43.70;17.70
15666;DHT22;20725;51.196;3.510;2022-08-01T14:09:11;42.20;19.10
15666;DHT22;20725;51.196;3.510;2022-08-01T14:11:54;40.70;20.60
15666;DHT22;20725;51.196;3.510;2022-08-01T14:14:35;41.10;21.00
15666;DHT22;20725;51.196;3.510;2022-08-01T14:17:09;43.30;19.60
15666;DHT22;20725;51.196;3.510;2022-08-01T14:19:39;46.30;18.00
15666;DHT22;20725;51.196;3.510;2022-08-01T14:22:12;48.20;16.60
15666;DHT22;20725;51.196;3.510;2022-08-01T14:24:53;49.50;16.00
15666;DHT22;20725;51.196;3.510;2022-08-01T14:27:26;49.70;16.00
15666;DHT22;20725;51.196;3.510;2022-08-01T14:43:09;43.20;18.10
15666;DHT22;20725;51.196;3.510;2022-08-01T14:45:58;41.80;19.70
15666;DHT22;20725;51.196;3.510;2022-08-01T15:15:12;40.20;20.10
15666;DHT22;20725;51.196;3.510;2022-08-01T15:18:07;37.70;21.90
15666;DHT22;20725;51.196;3.510;2022-08-01T15:21:18;36.40;23.90
15666;DHT22;20725;51.196;3.510;2022-08-01T15:39:32;33.70;26.90
15666;DHT22;20725;51.196;3.510;2022-08-01T15:46:59;33.70;26.90
15666;DHT22;20725;51.196;3.510;2022-08-01T15:52:43;32.80;28.00
15666;DHT22;20725;51.196;3.510;2022-08-01T15:55:50;33.00;27.30
15666;DHT22;20725;51.196;3.510;2022-08-01T15:58:28;32.70;28.00
15666;DHT22;20725;51.196;3.510;2022-08-01T16:11:20;32.10;28.80
15666;DHT22;20725;51.196;3.510;2022-08-01T16:14:12;31.70;28.00
15666;DHT22;20725;51.196;3.510;2022-08-01T16:16:55;31.60;28.70
15666;DHT22;20725;51.196;3.510;2022-08-01T16:19:35;31.50;28.10
15666;DHT22;20725;51.196;3.510;2022-08-01T16:22:24;31.40;28.60
15666;DHT22;20725;51.196;3.510;2022-08-01T16:25:12;31.00;28.00
15666;DHT22;20725;51.196;3.510;2022-08-01T16:29:32;30.90;28.70
15666;DHT22;20725;51.196;3.510;2022-08-01T16:30:46;30.60;28.60
15666;DHT22;20725;51.196;3.510;2022-08-01T16:33:19;30.60;29.30
15666;DHT22;20725;51.196;3.510;2022-08-01T16:36:09;30.50;29.60
15666;DHT22;20725;51.196;3.510;2022-08-01T16:38:56;30.50;29.30
15666;DHT22;20725;51.196;3.510;2022-08-01T16:41:34;30.60;29.90
15666;DHT22;20725;51.196;3.510;2022-08-01T16:44:24;30.70;29.60
15666;DHT22;20725;51.196;3.510;2022-08-01T16:46:56;30.60;30.30
15666;DHT22;20725;51.196;3.510;2022-08-01T16:49:29;30.20;30.40
15666;DHT22;20725;51.196;3.510;2022-08-01T16:55:06;29.50;31.40
15666;DHT22;20725;51.196;3.510;2022-08-01T16:57:45;29.20;31.90
15666;DHT22;20725;51.196;3.510;2022-08-01T17:00:30;28.70;32.00
15666;DHT22;20725;51.196;3.510;2022-08-01T17:04:06;28.60;32.70
15666;DHT22;20725;51.196;3.510;2022-08-01T17:06:20;28.60;32.70
15666;DHT22;20725;51.196;3.510;2022-08-01T17:09:11;28.50;32.20
15666;DHT22;20725;51.196;3.510;2022-08-01T17:11:44;28.10;33.00
15666;DHT22;20725;51.196;3.510;2022-08-01T17:14:19;27.90;33.10
15666;DHT22;20725;51.196;3.510;2022-08-01T17:17:03;27.90;33.50
15666;DHT22;20725;51.196;3.510;2022-08-01T17:19:54;27.80;33.90
15666;DHT22;20725;51.196;3.510;2022-08-01T17:22:34;27.60;33.80
15666;DHT22;20725;51.196;3.510;2022-08-01T17:25:26;27.50;34.10
15666;DHT22;20725;51.196;3.510;2022-08-01T17:28:09;27.40;34.30
15666;DHT22;20725;51.196;3.510;2022-08-01T17:31:10;27.20;34.40
15666;DHT22;20725;51.196;3.510;2022-08-01T17:34:35;27.10;34.90
15666;DHT22;20725;51.196;3.510;2022-08-01T17:37:07;26.90;36.60
15666;DHT22;20725;51.196;3.510;2022-08-01T17:40:01;26.70;35.00
15666;DHT22;20725;51.196;3.510;2022-08-01T17:42:36;26.70;35.40
15666;DHT22;20725;51.196;3.510;2022-08-01T17:45:11;26.60;35.70
15666;DHT22;20725;51.196;3.510;2022-08-01T17:47:42;26.50;36.00
15666;DHT22;20725;51.196;3.510;2022-08-01T17:50:32;26.30;35.90
15666;DHT22;20725;51.196;3.510;2022-08-01T17:53:00;26.10;36.50
15666;DHT22;20725;51.196;3.510;2022-08-01T17:56:09;25.90;36.40
15666;DHT22;20725;51.196;3.510;2022-08-01T17:58:31;25.80;36.80
15666;DHT22;20725;51.196;3.510;2022-08-01T18:00:59;25.80;37.70
15666;DHT22;20725;51.196;3.510;2022-08-01T18:04:30;25.70;38.10
15666;DHT22;20725;51.196;3.510;2022-08-01T18:07:01;25.70;38.50
15666;DHT22;20725;51.196;3.510;2022-08-01T18:09:35;25.50;39.00
15666;DHT22;20725;51.196;3.510;2022-08-01T18:12:16;25.40;39.10
15666;DHT22;20725;51.196;3.510;2022-08-01T18:14:49;25.30;39.80
15666;DHT22;20725;51.196;3.510;2022-08-01T18:17:30;25.10;40.20
15666;DHT22;20725;51.196;3.510;2022-08-01T18:20:00;25.10;40.70
15666;DHT22;20725;51.196;3.510;2022-08-01T18:22:35;25.00;40.90
15666;DHT22;20725;51.196;3.510;2022-08-01T18:25:22;24.90;41.00
15666;DHT22;20725;51.196;3.510;2022-08-01T18:28:01;24.80;41.20
15666;DHT22;20725;51.196;3.510;2022-08-01T18:30:38;24.70;41.80
15666;DHT22;20725;51.196;3.510;2022-08-01T18:33:12;24.70;41.80